TFFF Airport Information

Runway Information
Runway 10 Length 10826 ft width 147 ft
Elevation 10 ft Threshold 0 ft Heading 80
Runway 28 Length 10826 ft Width 147 ft
Elevation 14 ft Threshold 984 ft Heading 260
Airport Frequencies
Type APP Name FORT DE FR Frequency 121 MHZ
Type ATIS Name ATIS Frequency 127.85 MHZ
Type GND Name GND Frequency 121.9 MHZ
Type TWR Name FORT DE FR Frequency 118.5 MHZ
Airport Navaids
Type VOR-DME Name Fort De France Frequency 113300 KHZ
Type NDB Name Fort De France Frequency 329 KHZ
Airport Weather Information & NOTAM
ADDS - METARS form results

(0811 UTC 25 June 2018)
 
METAR text: TFFF 250800Z AUTO 09010KT 9999 BKN021 BKN031 BKN040 26/23 Q1015 TEMPO 09015G25KT 4000 SHRA BKN015CB
Conditions at: TFFF (LE LAMENTIN/MART, MQ) observed 0800 UTC 25 June 2018
Temperature: 26.0°C (79°F)
Dewpoint: 23.0°C (73°F) [RH = 84%]
Pressure (altimeter): 29.97 inches Hg (1015.0 mb)
Winds: from the E (90 degrees) at 12 MPH (10 knots; 5.2 m/s)
Visibility: 6 or more miles (10+ km)
Ceiling: 2100 feet AGL
Clouds: broken clouds at 2100 feet AGL
broken clouds at 3100 feet AGL
broken clouds at 4000 feet AGL
Weather: no significant weather observed at this time

METAR text: TFFF 250730Z AUTO 10010KT 9999 SCT020 BKN026 BKN037 26/23 Q1015 TEMPO 09015G25KT 4000 SHRA BKN015CB
Conditions at: TFFF (LE LAMENTIN/MART, MQ) observed 0730 UTC 25 June 2018
Temperature: 26.0°C (79°F)
Dewpoint: 23.0°C (73°F) [RH = 84%]
Pressure (altimeter): 29.97 inches Hg (1015.0 mb)
Winds: from the E (100 degrees) at 12 MPH (10 knots; 5.2 m/s)
Visibility: 6 or more miles (10+ km)
Ceiling: 2600 feet AGL
Clouds: scattered clouds at 2000 feet AGL
broken clouds at 2600 feet AGL
broken clouds at 3700 feet AGL
Weather: no significant weather observed at this time